Time;durP1;ratioP1;P1;durP2;ratioP2;P2;SDS_P1;SDS_P2;PMS_P1;PMS_P2;Temp;Humidity;BMP_temperature;BMP_pressure;BME280_temperature;BME280_humidity;BME280_pressure;Samples;Min_cycle;Max_cycle;Signal;HPM_P1;HPM_P2
2024/04/15 00:00:28;;;;;;;6.88;2.38;;;15.50;99.90;;;;;;5414536;26;20011;-50
2024/04/15 00:02:53;;;;;;;9.45;2.53;;;15.50;99.90;;;;;;5415724;26;19995;-50
2024/04/15 00:05:19;;;;;;;11.05;2.38;;;15.50;99.90;;;;;;5426743;21;20001;-55
2024/04/15 00:07:44;;;;;;;5.30;2.75;;;15.50;99.90;;;;;;5346928;26;20008;-52
2024/04/15 00:10:10;;;;;;;5.18;2.75;;;15.50;99.90;;;;;;5346090;26;20007;-53
2024/04/15 00:12:36;;;;;;;3.58;2.33;;;15.50;99.90;;;;;;5346646;26;20023;-48
2024/04/15 00:15:01;;;;;;;5.90;2.67;;;15.60;99.90;;;;;;5318831;26;20083;-50
2024/04/15 00:17:27;;;;;;;5.47;2.60;;;15.60;99.90;;;;;;5381750;26;20003;-49
2024/04/15 00:19:53;;;;;;;6.80;2.08;;;15.60;99.90;;;;;;5350135;26;20007;-54
2024/04/15 00:22:18;;;;;;;17.08;11.35;;;15.60;99.90;;;;;;5382703;26;19992;-51
2024/04/15 00:24:44;;;;;;;12.02;6.18;;;15.60;99.90;;;;;;5382140;26;20351;-50
2024/04/15 00:27:09;;;;;;;13.48;6.22;;;15.60;99.90;;;;;;5350412;26;20000;-50
2024/04/15 00:29:35;;;;;;;5.80;3.20;;;15.70;99.90;;;;;;5350241;26;19996;-51
2024/04/15 00:32:00;;;;;;;7.35;3.55;;;15.70;99.90;;;;;;5381996;26;20398;-53
2024/04/15 00:34:26;;;;;;;5.57;2.30;;;16.00;99.90;;;;;;5381607;26;19996;-51
2024/04/15 00:36:51;;;;;;;9.85;2.90;;;15.70;99.90;;;;;;5381952;26;20007;-49
2024/04/15 00:39:17;;;;;;;7.32;2.53;;;15.70;99.90;;;;;;5381047;26;19992;-49
2024/04/15 00:41:42;;;;;;;6.47;2.13;;;15.70;99.90;;;;;;5381982;26;19992;-53
2024/04/15 00:44:08;;;;;;;7.00;2.80;;;15.70;99.90;;;;;;5381776;26;20517;-55
2024/04/15 00:46:34;;;;;;;9.80;3.08;;;15.80;99.90;;;;;;5381986;26;19997;-52
2024/04/15 00:49:01;;;;;;;10.88;2.83;;;15.80;99.90;;;;;;5382085;26;19996;-52
2024/04/15 00:51:27;;;;;;;7.97;2.00;;;15.80;99.90;;;;;;5380716;26;20007;-55
2024/04/15 00:53:54;;;;;;;4.35;2.45;;;15.70;99.90;;;;;;5349934;26;19992;-53
2024/04/15 00:56:23;;;;;;;5.93;2.67;;;15.70;99.90;;;;;;5381620;26;20010;-53
2024/04/15 00:58:49;;;;;;;6.78;2.40;;;15.60;99.90;;;;;;5381499;26;20466;-54
2024/04/15 01:01:16;;;;;;;9.35;3.75;;;15.60;99.90;;;;;;5350343;26;20008;-51
2024/04/15 01:03:41;;;;;;;6.60;2.30;;;15.60;99.90;;;;;;5381436;26;20008;-53
2024/04/15 01:06:07;;;;;;;4.57;2.15;;;15.60;99.90;;;;;;5381743;26;20069;-50
2024/04/15 01:08:33;;;;;;;6.75;2.30;;;15.60;99.90;;;;;;5381320;26;20008;-49
2024/04/15 01:10:58;;;;;;;7.18;2.22;;;15.70;99.90;;;;;;5380572;26;20000;-54
2024/04/15 01:13:25;;;;;;;5.50;2.30;;;15.60;99.90;;;;;;5381400;26;20000;-51
2024/04/15 01:16:00;;;;;;;6.82;2.42;;;15.70;99.90;;;;;;5350354;26;19996;-54
2024/04/15 01:18:27;;;;;;;6.55;2.85;;;15.60;99.90;;;;;;5381117;26;19992;-51
2024/04/15 01:20:55;;;;;;;3.60;1.85;;;15.60;99.90;;;;;;5381096;26;20000;-53
2024/04/15 01:23:23;;;;;;;6.03;2.75;;;15.60;99.90;;;;;;5350305;26;20008;-52
2024/04/15 01:25:49;;;;;;;4.72;2.05;;;15.60;99.90;;;;;;5381071;26;20007;-51
2024/04/15 01:28:19;;;;;;;3.63;2.28;;;15.50;99.90;;;;;;5381193;26;19997;-51
2024/04/15 01:30:45;;;;;;;5.20;2.97;;;15.50;99.90;;;;;;5380887;26;20077;-49
2024/04/15 01:33:10;;;;;;;8.32;2.45;;;15.50;99.90;;;;;;5349866;26;20020;-51
2024/04/15 01:35:36;;;;;;;3.67;1.90;;;15.50;99.90;;;;;;5380534;26;20007;-50
2024/04/15 01:38:02;;;;;;;5.97;2.10;;;15.50;99.90;;;;;;5380343;26;20073;-53
2024/04/15 01:40:28;;;;;;;5.03;2.05;;;15.40;99.90;;;;;;5379850;26;20480;-51
2024/04/15 01:42:53;;;;;;;4.72;1.98;;;15.40;99.90;;;;;;5349661;26;20000;-53
2024/04/15 01:45:19;;;;;;;6.35;2.40;;;15.50;99.90;;;;;;5380685;26;20462;-51
2024/04/15 01:47:46;;;;;;;4.90;2.03;;;15.50;99.90;;;;;;5380524;26;20007;-54
2024/04/15 01:50:12;;;;;;;8.48;2.45;;;15.50;99.90;;;;;;5349265;26;20012;-55
2024/04/15 01:52:38;;;;;;;4.88;2.15;;;15.50;99.90;;;;;;5380683;26;20006;-53
2024/04/15 01:55:04;;;;;;;6.00;2.60;;;15.40;99.90;;;;;;5349712;26;20361;-54
2024/04/15 01:57:29;;;;;;;7.28;2.33;;;15.30;99.90;;;;;;5380517;26;20007;-54
2024/04/15 01:59:55;;;;;;;9.85;3.03;;;15.30;99.90;;;;;;5380254;26;20077;-53
2024/04/15 02:02:20;;;;;;;4.07;2.35;;;15.40;99.90;;;;;;5380334;26;20428;-53
2024/04/15 02:04:45;;;;;;;7.35;2.40;;;15.30;99.90;;;;;;5380396;26;20007;-51
2024/04/15 02:07:11;;;;;;;4.72;2.70;;;15.40;99.90;;;;;;5380749;26;20552;-53
2024/04/15 02:09:36;;;;;;;5.57;2.03;;;15.30;99.90;;;;;;5349519;26;19996;-55
2024/04/15 02:12:02;;;;;;;7.25;3.40;;;15.40;99.90;;;;;;5380942;26;20470;-51
2024/04/15 02:14:28;;;;;;;4.60;2.25;;;15.40;99.90;;;;;;5380725;26;20007;-51
2024/04/15 02:16:53;;;;;;;6.43;2.15;;;15.40;99.90;;;;;;5380940;26;20004;-50
2024/04/15 02:19:19;;;;;;;5.80;2.25;;;15.30;99.90;;;;;;5379932;26;20006;-52
2024/04/15 02:21:44;;;;;;;3.90;2.33;;;15.30;99.90;;;;;;5380557;26;20007;-54
2024/04/15 02:24:13;;;;;;;5.68;2.92;;;15.20;99.90;;;;;;5379220;26;20500;-52
2024/04/15 02:26:39;;;;;;;3.83;2.22;;;15.20;99.90;;;;;;5380228;26;20000;-50
2024/04/15 02:29:04;;;;;;;5.90;2.65;;;14.70;99.90;;;;;;5380620;26;19996;-50
2024/04/15 02:31:30;;;;;;;3.05;2.55;;;15.20;99.90;;;;;;5380088;26;20338;-52
2024/04/15 02:33:56;;;;;;;7.28;3.13;;;15.20;99.90;;;;;;5380520;26;20468;-52
2024/04/15 02:36:22;;;;;;;5.78;2.83;;;15.20;99.90;;;;;;5349573;26;20000;-51
2024/04/15 02:38:49;;;;;;;10.18;3.67;;;15.20;99.90;;;;;;5379900;26;19993;-53
2024/04/15 02:41:15;;;;;;;4.35;3.10;;;15.20;99.90;;;;;;5380003;26;20019;-51
2024/04/15 02:43:41;;;;;;;7.32;3.15;;;15.10;99.90;;;;;;5380253;26;19997;-49
2024/04/15 02:46:06;;;;;;;7.80;2.83;;;15.00;99.90;;;;;;5379425;26;20023;-52
2024/04/15 02:48:31;;;;;;;8.60;3.20;;;15.00;99.90;;;;;;5379527;26;19996;-52
2024/04/15 02:50:59;;;;;;;7.97;3.60;;;15.00;99.90;;;;;;5379498;26;20467;-52
2024/04/15 02:53:25;;;;;;;10.07;3.30;;;15.00;99.90;;;;;;5379375;26;20011;-50
2024/04/15 02:55:51;;;;;;;5.18;3.10;;;14.90;99.90;;;;;;5379214;26;20000;-49
2024/04/15 02:58:17;;;;;;;5.78;3.58;;;14.80;99.90;;;;;;5379251;26;20459;-53
2024/04/15 03:00:42;;;;;;;4.35;3.33;;;14.80;99.90;;;;;;5379595;26;20019;-51
2024/04/15 03:03:08;;;;;;;9.85;3.70;;;14.80;99.90;;;;;;5379164;26;20012;-50
2024/04/15 03:05:43;;;;;;;10.63;4.20;;;14.80;99.90;;;;;;5379707;26;20014;-50
2024/04/15 03:08:09;;;;;;;6.45;3.67;;;14.80;99.90;;;;;;5348667;26;20016;-52
2024/04/15 03:10:35;;;;;;;8.40;3.63;;;14.80;99.90;;;;;;5378851;26;20448;-50
2024/04/15 03:13:00;;;;;;;11.07;4.25;;;14.70;99.90;;;;;;5379178;26;20011;-53
2024/04/15 03:15:26;;;;;;;7.43;3.90;;;14.70;99.90;;;;;;5380020;26;20007;-51
2024/04/15 03:17:51;;;;;;;5.85;4.82;;;14.70;99.90;;;;;;5379799;26;20014;-55
2024/04/15 03:20:17;;;;;;;13.95;5.13;;;14.70;99.90;;;;;;5378795;26;20006;-52
2024/04/15 03:22:51;;;;;;;9.73;4.85;;;14.80;99.90;;;;;;5379117;26;20011;-47
2024/04/15 03:25:18;;;;;;;16.95;4.90;;;14.70;99.90;;;;;;5379272;26;20032;-53
2024/04/15 03:27:44;;;;;;;13.25;4.05;;;14.70;99.90;;;;;;5379317;26;20094;-51
2024/04/15 03:30:10;;;;;;;7.20;4.35;;;14.70;99.90;;;;;;5379261;26;20007;-48
2024/04/15 03:32:35;;;;;;;6.75;4.40;;;14.50;99.90;;;;;;5348618;26;19996;-51
2024/04/15 03:35:01;;;;;;;8.30;4.50;;;14.60;99.90;;;;;;5379091;26;20000;-49
2024/04/15 03:37:26;;;;;;;9.85;3.90;;;14.50;99.90;;;;;;5379963;26;19998;-52
2024/04/15 03:39:52;;;;;;;9.15;4.10;;;14.50;99.90;;;;;;5379091;26;19996;-50
2024/04/15 03:42:17;;;;;;;7.68;3.97;;;14.50;99.90;;;;;;5379389;26;20100;-49
2024/04/15 03:44:43;;;;;;;11.27;4.43;;;14.40;99.90;;;;;;5379417;26;20000;-52
2024/04/15 03:47:08;;;;;;;11.25;4.57;;;14.30;99.90;;;;;;5379437;26;19992;-53
2024/04/15 03:49:34;;;;;;;6.38;3.83;;;14.30;99.90;;;;;;5379196;26;19996;-53
2024/04/15 03:52:00;;;;;;;8.35;4.10;;;14.20;99.90;;;;;;5348748;26;20355;-51
2024/04/15 03:54:25;;;;;;;4.65;3.72;;;14.30;99.90;;;;;;5379420;26;20376;-51
2024/04/15 03:56:51;;;;;;;11.07;4.43;;;14.30;99.90;;;;;;5379338;26;19996;-51
2024/04/15 03:59:17;;;;;;;11.20;4.88;;;14.30;99.90;;;;;;5378782;26;20000;-53
2024/04/15 04:01:42;;;;;;;6.38;3.88;;;14.30;99.90;;;;;;5378936;26;20351;-50
2024/04/15 04:04:08;;;;;;;11.45;3.75;;;14.20;99.90;;;;;;5348067;26;20051;-50
2024/04/15 04:06:34;;;;;;;11.68;3.70;;;14.20;99.90;;;;;;5379034;26;20069;-49
2024/04/15 04:08:59;;;;;;;6.25;3.92;;;14.20;99.90;;;;;;5378940;26;20460;-52
2024/04/15 04:11:26;;;;;;;11.93;4.15;;;14.20;99.90;;;;;;5378748;26;20359;-51
2024/04/15 04:13:51;;;;;;;9.02;4.47;;;14.20;99.90;;;;;;5378922;26;20375;-53
2024/04/15 04:16:17;;;;;;;13.52;5.05;;;14.10;99.90;;;;;;5378840;26;19996;-52
2024/04/15 04:18:44;;;;;;;11.95;4.05;;;14.10;99.90;;;;;;5347853;26;20093;-52
2024/04/15 04:21:11;;;;;;;12.88;4.75;;;14.10;99.90;;;;;;5378834;26;20005;-50
2024/04/15 04:23:36;;;;;;;6.18;4.43;;;13.70;99.90;;;;;;5378800;26;20077;-50
2024/04/15 04:26:02;;;;;;;6.68;4.60;;;14.00;99.90;;;;;;5378769;26;20004;-49
2024/04/15 04:28:28;;;;;;;17.00;4.93;;;14.00;99.90;;;;;;5378630;26;20020;-49
2024/04/15 04:30:53;;;;;;;8.98;5.32;;;14.00;99.90;;;;;;5378225;26;20349;-54
2024/04/15 04:33:19;;;;;;;11.93;5.80;;;14.00;99.90;;;;;;5347683;26;20008;-54
2024/04/15 04:35:44;;;;;;;8.23;5.18;;;14.00;99.90;;;;;;5378397;26;20466;-49
2024/04/15 04:38:10;;;;;;;11.25;5.55;;;14.00;99.90;;;;;;5378312;26;20027;-50
2024/04/15 04:40:36;;;;;;;9.82;4.88;;;13.80;99.90;;;;;;5377614;26;20341;-51
2024/04/15 04:43:01;;;;;;;10.88;6.53;;;13.80;99.90;;;;;;5378396;26;20077;-49
2024/04/15 04:45:27;;;;;;;12.05;7.25;;;13.80;99.90;;;;;;5378210;26;20000;-54
2024/04/15 04:47:52;;;;;;;12.88;5.78;;;13.90;99.90;;;;;;5350139;26;20029;-50
2024/04/15 04:50:18;;;;;;;10.55;4.88;;;13.90;99.90;;;;;;5381493;26;20007;-53
2024/04/15 04:52:43;;;;;;;11.95;5.65;;;13.80;99.90;;;;;;5381843;26;19992;-49
2024/04/15 04:55:09;;;;;;;13.82;6.15;;;13.80;99.90;;;;;;5382088;26;20000;-52
2024/04/15 04:57:34;;;;;;;10.70;6.20;;;13.80;99.90;;;;;;5382031;26;20069;-52
2024/04/15 05:00:00;;;;;;;5.95;5.32;;;13.80;99.90;;;;;;5350748;26;20466;-51
2024/04/15 05:02:25;;;;;;;10.75;5.35;;;13.70;99.90;;;;;;5381635;26;20007;-52
2024/04/15 05:04:51;;;;;;;12.65;6.40;;;13.80;99.90;;;;;;5382017;26;19997;-52
2024/04/15 05:07:17;;;;;;;16.77;6.50;;;13.80;99.90;;;;;;5381731;26;19997;-50
2024/04/15 05:09:42;;;;;;;10.60;5.15;;;13.80;99.90;;;;;;5381222;26;20015;-50
2024/04/15 05:12:08;;;;;;;15.70;6.20;;;13.80;99.90;;;;;;5381669;26;20002;-53
2024/04/15 05:14:33;;;;;;;13.05;5.55;;;13.90;99.90;;;;;;5381312;26;20444;-53
2024/04/15 05:16:59;;;;;;;13.75;5.75;;;13.80;99.90;;;;;;5381369;26;20032;-49
2024/04/15 05:19:25;;;;;;;13.88;5.88;;;13.80;99.90;;;;;;5381341;26;20444;-54
2024/04/15 05:21:50;;;;;;;7.45;5.75;;;13.90;99.90;;;;;;5381635;26;20062;-54
2024/04/15 05:24:16;;;;;;;12.40;7.47;;;13.80;99.90;;;;;;5381502;26;20436;-50
2024/04/15 05:26:41;;;;;;;11.30;6.10;;;13.90;99.90;;;;;;5381264;26;20073;-54
2024/04/15 05:29:07;;;;;;;15.85;7.82;;;13.80;99.90;;;;;;5381275;26;20006;-49
2024/04/15 05:31:32;;;;;;;12.25;7.15;;;13.80;99.90;;;;;;5350223;26;20015;-49
2024/04/15 05:33:58;;;;;;;12.40;7.18;;;13.80;99.90;;;;;;5381388;26;20011;-50
2024/04/15 05:36:23;;;;;;;14.05;7.55;;;13.70;99.90;;;;;;5381373;26;20008;-50
2024/04/15 05:38:49;;;;;;;16.85;7.35;;;13.70;99.90;;;;;;5380712;26;20036;-51
2024/04/15 05:41:14;;;;;;;11.32;6.75;;;13.70;99.90;;;;;;5380653;26;20008;-51
2024/04/15 05:43:40;;;;;;;10.25;6.50;;;13.70;99.90;;;;;;5380639;26;20011;-52
2024/04/15 05:46:05;;;;;;;13.50;7.38;;;13.70;99.90;;;;;;5381065;26;20020;-51
2024/04/15 05:48:31;;;;;;;12.82;7.22;;;13.60;99.90;;;;;;5380537;26;19997;-50
2024/04/15 05:50:57;;;;;;;11.75;6.72;;;13.80;99.90;;;;;;5380897;26;20349;-54
2024/04/15 05:53:22;;;;;;;15.68;7.20;;;13.90;99.90;;;;;;5380637;26;20011;-51
2024/04/15 05:55:48;;;;;;;18.45;7.53;;;13.90;99.90;;;;;;5380867;26;20351;-52
2024/04/15 05:58:13;;;;;;;10.48;6.15;;;13.90;99.90;;;;;;5379382;26;20007;-55
2024/04/15 06:00:39;;;;;;;12.77;7.35;;;13.90;99.90;;;;;;5380461;26;20438;-52
2024/04/15 06:03:05;;;;;;;15.43;7.90;;;13.70;99.90;;;;;;5380646;26;20000;-53
2024/04/15 06:05:32;;;;;;;15.70;7.93;;;13.70;99.90;;;;;;5375676;21;20332;-48
2024/04/15 06:07:57;;;;;;;16.10;7.85;;;13.70;99.90;;;;;;5414218;26;19995;-51
2024/04/15 06:10:23;;;;;;;8.57;6.88;;;13.90;99.90;;;;;;5415388;26;20006;-50
2024/04/15 06:12:48;;;;;;;13.60;6.60;;;13.90;99.90;;;;;;5416126;26;20010;-47
2024/04/15 06:15:14;;;;;;;13.02;6.53;;;14.10;99.90;;;;;;5384913;26;20057;-47
2024/04/15 06:17:39;;;;;;;13.75;7.32;;;14.20;99.90;;;;;;5381254;26;19999;-52
2024/04/15 06:20:06;;;;;;;11.52;6.30;;;14.30;99.90;;;;;;5349161;26;20439;-47
2024/04/15 06:22:31;;;;;;;16.40;7.40;;;14.30;99.90;;;;;;5380367;26;20422;-48
2024/04/15 06:24:57;;;;;;;13.73;7.15;;;14.30;99.90;;;;;;5381242;26;20144;-49
2024/04/15 06:27:22;;;;;;;12.20;6.72;;;14.30;99.90;;;;;;5380545;26;20335;-48
2024/04/15 06:29:49;;;;;;;7.85;6.82;;;14.20;99.90;;;;;;5379808;26;20073;-48
2024/04/15 06:32:14;;;;;;;10.23;6.28;;;14.10;99.90;;;;;;5380217;26;20003;-47
2024/04/15 06:34:40;;;;;;;12.60;6.35;;;14.10;99.90;;;;;;5349401;26;20317;-49
2024/04/15 06:37:05;;;;;;;9.65;6.60;;;14.10;99.90;;;;;;5380638;26;20818;-47
2024/04/15 06:39:31;;;;;;;18.25;7.03;;;14.00;99.90;;;;;;5379362;26;19996;-48
2024/04/15 06:41:56;;;;;;;12.80;6.07;;;14.00;99.90;;;;;;5349526;26;20070;-51
2024/04/15 06:44:22;;;;;;;16.33;5.90;;;13.90;99.90;;;;;;5380103;26;20002;-48
2024/04/15 06:46:47;;;;;;;8.52;5.80;;;13.90;99.90;;;;;;5379931;26;19992;-51
2024/04/15 06:49:13;;;;;;;14.15;5.95;;;13.90;99.90;;;;;;5380003;26;20007;-48
2024/04/15 06:51:39;;;;;;;11.93;6.00;;;13.90;99.90;;;;;;5380348;26;20325;-54
2024/04/15 06:54:05;;;;;;;8.45;6.15;;;13.90;99.90;;;;;;5384929;26;19997;-51
2024/04/15 06:56:34;;;;;;;8.30;5.93;;;14.00;99.90;;;;;;5378111;26;19996;-51
2024/04/15 06:58:59;;;;;;;14.85;5.63;;;14.00;99.90;;;;;;5378123;26;20339;-48
2024/04/15 07:01:26;;;;;;;11.50;6.28;;;14.00;99.90;;;;;;5379523;26;19996;-54
2024/04/15 07:03:51;;;;;;;8.95;5.57;;;14.00;99.90;;;;;;5348641;26;20000;-49
2024/04/15 07:06:17;;;;;;;8.80;6.18;;;14.20;99.90;;;;;;5379018;26;20345;-50
2024/04/15 07:08:43;;;;;;;9.45;5.45;;;14.40;99.90;;;;;;5377872;26;20022;-49
2024/04/15 07:11:09;;;;;;;12.25;5.93;;;14.50;99.90;;;;;;5398022;26;20019;-48
2024/04/15 07:13:34;;;;;;;13.90;5.50;;;14.60;99.90;;;;;;5400231;26;20464;-51
2024/04/15 07:16:00;;;;;;;9.35;5.85;;;14.70;99.90;;;;;;5379919;26;20012;-48
2024/04/15 07:18:26;;;;;;;8.32;5.03;;;14.80;99.90;;;;;;5379343;26;20004;-52
2024/04/15 07:20:51;;;;;;;8.00;4.63;;;14.80;99.90;;;;;;5379213;26;20004;-48
2024/04/15 07:23:17;;;;;;;6.65;3.92;;;15.00;99.90;;;;;;5379842;26;20398;-51
2024/04/15 07:25:42;;;;;;;10.60;4.10;;;15.40;99.90;;;;;;5379918;26;20012;-49
2024/04/15 07:28:08;;;;;;;12.95;3.08;;;16.60;99.90;;;;;;5348704;26;20008;-50
2024/04/15 07:30:33;;;;;;;3.78;3.10;;;18.10;99.90;;;;;;5379886;26;20034;-49
2024/04/15 07:32:59;;;;;;;4.88;3.17;;;20.00;99.90;;;;;;5379294;26;20455;-52
2024/04/15 07:35:25;;;;;;;8.68;3.25;;;20.80;98.30;;;;;;5379501;26;20478;-49
2024/04/15 07:37:51;;;;;;;7.72;3.78;;;22.90;95.80;;;;;;5379573;26;20459;-51
2024/04/15 07:40:16;;;;;;;7.05;3.92;;;23.10;95.70;;;;;;5376913;26;20019;-51
2024/04/15 07:42:42;;;;;;;7.07;3.47;;;24.10;91.70;;;;;;5379423;26;20004;-51
2024/04/15 07:45:07;;;;;;;5.13;2.60;;;24.00;91.30;;;;;;5356348;26;20015;-53
2024/04/15 07:47:33;;;;;;;5.47;3.10;;;23.50;90.80;;;;;;5384657;26;20015;-54
2024/04/15 07:49:59;;;;;;;13.35;2.60;;;22.50;91.70;;;;;;5378366;26;20019;-47
2024/04/15 07:52:25;;;;;;;5.75;2.65;;;21.90;91.90;;;;;;5379391;26;20074;-51
2024/04/15 07:54:51;;;;;;;7.95;3.05;;;21.00;92.50;;;;;;5348307;26;20391;-50
2024/04/15 07:57:17;;;;;;;5.70;3.03;;;20.50;94.80;;;;;;5378839;26;20002;-52
2024/04/15 07:59:42;;;;;;;5.68;3.15;;;19.90;95.20;;;;;;5378742;26;20499;-51
2024/04/15 08:02:09;;;;;;;10.73;3.22;;;19.40;96.50;;;;;;5379479;26;20006;-50
2024/04/15 08:04:37;;;;;;;5.03;2.60;;;19.50;97.60;;;;;;5377568;26;20089;-51
2024/04/15 08:07:03;;;;;;;3.88;2.53;;;19.90;97.20;;;;;;5339801;26;20414;-51
2024/04/15 08:09:30;;;;;;;5.10;3.00;;;20.70;95.00;;;;;;5344055;26;20416;-51
2024/04/15 08:11:55;;;;;;;6.15;2.47;;;20.30;94.70;;;;;;5344178;26;20004;-52
2024/04/15 08:14:22;;;;;;;4.22;2.05;;;19.60;94.90;;;;;;5349919;26;20129;-48
2024/04/15 08:16:48;;;;;;;5.22;2.47;;;20.00;96.10;;;;;;5380534;26;20036;-50
2024/04/15 08:19:13;;;;;;;6.13;2.28;;;19.90;94.60;;;;;;5380653;26;20124;-55
2024/04/15 08:21:39;;;;;;;7.63;4.18;;;19.50;95.30;;;;;;5382638;26;20011;-50
2024/04/15 08:24:06;;;;;;;4.60;2.30;;;19.80;96.00;;;;;;5382611;26;20011;-52
2024/04/15 08:26:31;;;;;;;12.45;3.10;;;19.80;95.20;;;;;;5382273;26;20001;-50
2024/04/15 08:28:58;;;;;;;6.00;2.75;;;19.20;95.60;;;;;;5385862;26;20000;-55
2024/04/15 08:31:23;;;;;;;9.18;3.15;;;18.60;96.80;;;;;;5369679;26;19999;-47
2024/04/15 08:33:49;;;;;;;7.75;4.15;;;17.80;97.60;;;;;;5384281;26;20069;-54
2024/04/15 08:36:15;;;;;;;5.60;2.75;;;17.30;98.50;;;;;;5383536;26;20006;-53
2024/04/15 08:38:44;;;;;;;4.53;2.35;;;16.90;99.50;;;;;;5379855;26;20016;-53
2024/04/15 08:41:19;;;;;;;3.92;2.53;;;16.60;99.90;;;;;;5353732;26;20014;-52
2024/04/15 08:43:46;;;;;;;9.18;2.03;;;16.60;99.90;;;;;;5382483;26;20107;-57
2024/04/15 08:46:23;;;;;;;5.78;2.08;;;16.70;99.20;;;;;;5380908;26;20028;-54
2024/04/15 08:48:50;;;;;;;6.18;2.08;;;16.70;98.80;;;;;;5379581;26;20447;-52
2024/04/15 08:51:18;;;;;;;4.82;1.50;;;16.70;99.40;;;;;;5381199;26;20019;-50
2024/04/15 08:53:44;;;;;;;7.65;1.63;;;16.60;99.60;;;;;;5383784;26;19996;-51
2024/04/15 08:56:10;;;;;;;5.22;1.88;;;16.80;99.40;;;;;;5357556;26;20006;-57
2024/04/15 08:58:37;;;;;;;4.72;1.48;;;17.00;98.70;;;;;;5353880;26;20090;-56
2024/04/15 09:01:04;;;;;;;3.50;1.73;;;17.10;97.90;;;;;;5380330;26;20007;-54
2024/04/15 09:03:30;;;;;;;3.10;1.10;;;17.40;98.00;;;;;;5382631;26;20337;-49
2024/04/15 09:05:56;;;;;;;3.08;1.10;;;17.60;96.40;;;;;;5380769;26;20012;-50
2024/04/15 09:08:21;;;;;;;1.67;0.73;;;17.80;95.80;;;;;;5381603;26;20479;-54
2024/04/15 09:10:46;;;;;;;2.60;1.08;;;18.00;94.70;;;;;;5381179;26;19997;-51
2024/04/15 09:13:12;;;;;;;1.63;0.80;;;18.10;95.10;;;;;;5350551;26;20000;-55
2024/04/15 09:15:39;;;;;;;4.90;1.40;;;18.10;94.40;;;;;;5381639;26;20000;-49
2024/04/15 09:18:06;;;;;;;0.85;0.65;;;18.20;93.90;;;;;;5380452;26;20020;-49
2024/04/15 09:20:31;;;;;;;6.07;1.00;;;18.50;93.90;;;;;;5381184;26;20372;-48
2024/04/15 09:23:01;;;;;;;4.75;1.73;;;18.80;93.70;;;;;;5385822;26;20010;-49
2024/04/15 09:25:27;;;;;;;0.63;0.60;;;18.90;93.80;;;;;;5362563;26;20008;-56
2024/04/15 09:27:55;;;;;;;5.70;0.88;;;19.10;93.40;;;;;;5349679;26;20016;-50
2024/04/15 09:30:20;;;;;;;5.57;1.05;;;19.10;93.20;;;;;;5381356;26;20004;-51
2024/04/15 09:32:46;;;;;;;4.78;1.30;;;18.90;93.00;;;;;;5350496;26;20007;-49
2024/04/15 09:35:12;;;;;;;2.10;0.93;;;18.90;93.00;;;;;;5390232;26;19999;-50
2024/04/15 09:37:38;;;;;;;3.55;1.10;;;18.70;92.50;;;;;;5384935;26;20015;-57
2024/04/15 09:40:04;;;;;;;2.97;0.60;;;18.30;93.20;;;;;;5385337;26;20073;-52
2024/04/15 09:42:31;;;;;;;3.00;0.90;;;18.10;93.60;;;;;;5375833;26;20051;-54
2024/04/15 09:44:57;;;;;;;5.10;1.33;;;18.30;94.00;;;;;;5375753;26;20000;-51
2024/04/15 09:47:25;;;;;;;2.65;1.30;;;18.60;93.70;;;;;;5375634;26;20035;-52
2024/04/15 09:49:51;;;;;;;3.83;1.65;;;18.90;93.70;;;;;;5376125;26;20343;-51
2024/04/15 09:52:29;;;;;;;2.78;1.67;;;19.00;93.40;;;;;;5378104;26;20011;-50
2024/04/15 09:55:04;;;;;;;6.65;1.92;;;19.00;93.60;;;;;;5380883;26;20000;-55
2024/04/15 09:57:33;;;;;;;4.40;1.85;;;18.90;93.50;;;;;;5379684;26;20000;-57
2024/04/15 10:00:01;;;;;;;22.98;15.75;;;18.70;93.20;;;;;;5380265;26;20073;-52
2024/04/15 10:02:45;;;;;;;6.72;3.38;;;18.20;94.20;;;;;;5349953;26;20467;-54
2024/04/15 10:05:24;;;;;;;7.50;3.97;;;18.00;94.10;;;;;;5381003;26;20000;-58
2024/04/15 10:07:56;;;;;;;1.83;1.05;;;18.00;93.90;;;;;;5379014;26;20000;-56
2024/04/15 10:10:23;;;;;;;4.10;1.83;;;17.90;94.00;;;;;;5377415;26;20073;-61
2024/04/15 10:12:51;;;;;;;3.80;0.75;;;17.60;94.00;;;;;;5379470;26;20352;-60
2024/04/15 10:15:21;;;;;;;3.33;0.80;;;17.70;93.80;;;;;;5379795;26;20000;-53
2024/04/15 10:18:05;;;;;;;2.33;0.80;;;17.80;94.10;;;;;;5380266;26;20000;-56
2024/04/15 10:20:35;;;;;;;2.30;0.82;;;18.10;93.70;;;;;;5379805;26;20004;-52
2024/04/15 10:23:06;;;;;;;5.85;0.93;;;18.20;92.40;;;;;;5380158;26;20000;-62
2024/04/15 10:25:32;;;;;;;4.00;1.17;;;17.80;91.90;;;;;;5380286;26;20032;-56
2024/04/15 10:27:58;;;;;;;2.63;0.77;;;17.60;92.20;;;;;;5378990;26;20012;-46
2024/04/15 10:30:28;;;;;;;2.55;0.70;;;17.40;92.40;;;;;;5348338;26;20002;-45
2024/04/15 10:33:02;;;;;;;5.03;0.98;;;17.40;93.20;;;;;;5380015;26;20134;-48
2024/04/15 10:35:28;;;;;;;9.23;0.98;;;17.50;92.70;;;;;;5380477;26;20028;-51
2024/04/15 10:37:58;;;;;;;3.25;0.88;;;17.70;92.00;;;;;;5379466;26;20023;-46
2024/04/15 10:40:38;;;;;;;4.07;1.05;;;17.80;91.80;;;;;;5379218;26;20012;-49
2024/04/15 10:43:08;;;;;;;3.22;0.80;;;17.80;91.10;;;;;;5378176;26;20010;-47
2024/04/15 10:45:34;;;;;;;4.43;1.50;;;17.90;91.90;;;;;;5379029;26;20000;-53
2024/04/15 10:47:59;;;;;;;4.40;0.95;;;18.10;92.00;;;;;;5379596;26;20019;-54
2024/04/15 10:50:25;;;;;;;2.25;0.82;;;18.10;91.00;;;;;;5379719;26;20001;-47
2024/04/15 10:52:51;;;;;;;1.52;0.60;;;18.00;91.20;;;;;;5394949;26;20019;-48
2024/04/15 10:55:18;;;;;;;5.03;1.35;;;17.80;90.90;;;;;;5381227;26;20001;-50
2024/04/15 10:57:45;;;;;;;5.93;1.20;;;17.90;92.10;;;;;;5378262;26;20028;-50
2024/04/15 11:00:12;;;;;;;2.97;1.23;;;17.90;91.30;;;;;;5377692;26;20468;-52
2024/04/15 11:02:52;;;;;;;1.42;0.80;;;17.60;90.80;;;;;;5379080;26;20406;-50
2024/04/15 11:05:19;;;;;;;2.60;1.02;;;17.30;91.50;;;;;;5378338;26;20000;-49
2024/04/15 11:07:51;;;;;;;4.00;0.88;;;17.10;91.80;;;;;;5379203;26;20340;-51
2024/04/15 11:10:17;;;;;;;2.30;0.80;;;17.10;91.60;;;;;;5379407;26;20037;-48
2024/04/15 11:12:42;;;;;;;5.72;1.20;;;17.00;92.30;;;;;;5379560;26;20000;-51
2024/04/15 11:15:15;;;;;;;6.35;1.20;;;17.00;91.50;;;;;;5380008;26;19996;-51
2024/04/15 11:17:59;;;;;;;3.42;1.50;;;17.10;91.50;;;;;;5379055;26;20000;-46
2024/04/15 11:20:25;;;;;;;4.00;1.10;;;17.40;91.80;;;;;;5379133;26;20073;-46
2024/04/15 11:22:51;;;;;;;8.23;1.08;;;17.50;92.20;;;;;;5379622;26;20032;-55
2024/04/15 11:25:18;;;;;;;2.63;1.08;;;17.50;92.30;;;;;;5379700;26;20000;-50
2024/04/15 11:27:53;;;;;;;4.20;1.02;;;17.50;90.90;;;;;;5378609;26;20069;-46
2024/04/15 11:30:22;;;;;;;8.80;1.48;;;17.60;91.30;;;;;;5379454;26;20000;-55
2024/04/15 11:32:50;;;;;;;5.15;2.90;;;17.60;90.10;;;;;;5378135;26;20008;-49
2024/04/15 11:35:16;;;;;;;8.65;1.10;;;17.70;90.50;;;;;;5379260;26;20073;-50
2024/04/15 11:37:42;;;;;;;4.20;1.15;;;17.80;90.40;;;;;;5399168;26;20003;-53
2024/04/15 11:40:10;;;;;;;2.55;1.10;;;17.70;89.00;;;;;;5378107;26;20000;-50
2024/04/15 11:42:38;;;;;;;2.53;1.35;;;17.70;86.40;;;;;;5379449;26;20024;-48
2024/04/15 11:45:06;;;;;;;8.43;1.17;;;17.70;87.40;;;;;;5384188;26;20351;-50
2024/04/15 11:47:32;;;;;;;2.45;0.80;;;17.60;87.60;;;;;;5402089;26;20019;-48
2024/04/15 11:50:01;;;;;;;3.97;1.05;;;17.40;86.10;;;;;;5409927;26;20000;-52
2024/04/15 11:52:26;;;;;;;5.78;1.23;;;17.40;87.80;;;;;;5381789;26;20056;-56
2024/04/15 11:54:53;;;;;;;3.65;1.02;;;17.50;87.90;;;;;;5389985;26;20164;-49
2024/04/15 11:57:19;;;;;;;1.50;1.00;;;17.60;89.10;;;;;;5387690;26;20004;-50
2024/04/15 11:59:44;;;;;;;5.35;1.10;;;17.70;88.50;;;;;;5371631;26;20022;-54
2024/04/15 12:02:13;;;;;;;1.40;0.90;;;17.70;87.70;;;;;;5387320;26;20339;-50
2024/04/15 12:04:46;;;;;;;6.22;1.27;;;17.60;87.40;;;;;;5371220;26;20348;-51
2024/04/15 12:07:11;;;;;;;11.35;1.13;;;17.50;87.70;;;;;;5403079;21;20013;-48
2024/04/15 12:09:37;;;;;;;3.38;1.38;;;17.50;89.90;;;;;;5443127;26;20002;-54
2024/04/15 12:12:02;;;;;;;3.10;0.82;;;17.60;88.80;;;;;;5438951;26;20018;-55
2024/04/15 12:14:28;;;;;;;7.78;1.00;;;17.60;88.50;;;;;;5455873;26;20013;-56
2024/04/15 12:16:54;;;;;;;3.08;0.80;;;17.80;88.20;;;;;;5478662;26;19995;-53
2024/04/15 12:19:19;;;;;;;7.22;1.17;;;17.70;87.20;;;;;;5428825;26;20000;-57
2024/04/15 12:21:45;;;;;;;1.90;0.88;;;17.70;87.50;;;;;;5392142;26;20011;-58
2024/04/15 12:24:10;;;;;;;3.40;0.80;;;17.60;86.70;;;;;;5393283;26;20429;-59
2024/04/15 12:26:36;;;;;;;6.13;1.00;;;17.50;88.00;;;;;;5426317;26;20004;-58
2024/04/15 12:29:02;;;;;;;3.03;0.90;;;17.60;86.90;;;;;;5393113;26;20007;-59
2024/04/15 12:31:27;;;;;;;5.10;1.70;;;17.50;87.20;;;;;;5395010;26;19995;-58
2024/04/15 12:33:53;;;;;;;1.30;0.70;;;17.50;86.90;;;;;;5429153;26;20018;-58
2024/04/15 12:36:18;;;;;;;5.53;1.00;;;17.40;87.80;;;;;;5428665;26;20402;-59
2024/04/15 12:38:44;;;;;;;2.40;1.10;;;17.50;88.00;;;;;;5427126;26;20010;-59